sensor_id;sensor_type;location;lat;lon;timestamp;temperature;humidity
7317;DHT22;3699;51.462;6.696;2022-11-15T00:00:56;11.20;99.90
7317;DHT22;3699;51.462;6.696;2022-11-15T00:03:25;11.10;99.90
7317;DHT22;3699;51.462;6.696;2022-11-15T00:05:52;11.10;99.90
7317;DHT22;3699;51.462;6.696;2022-11-15T00:08:19;11.40;99.90
7317;DHT22;3699;51.462;6.696;2022-11-15T00:10:54;11.30;99.90
7317;DHT22;3699;51.462;6.696;2022-11-15T00:13:21;11.50;99.90
7317;DHT22;3699;51.462;6.696;2022-11-15T00:15:48;11.30;99.90
7317;DHT22;3699;51.462;6.696;2022-11-15T00:18:16;11.50;99.90
7317;DHT22;3699;51.462;6.696;2022-11-15T00:20:43;11.40;99.90
7317;DHT22;3699;51.462;6.696;2022-11-15T00:23:10;11.40;99.90
7317;DHT22;3699;51.462;6.696;2022-11-15T00:25:37;11.00;99.90
7317;DHT22;3699;51.462;6.696;2022-11-15T00:28:04;11.40;99.90
7317;DHT22;3699;51.462;6.696;2022-11-15T00:30:31;11.50;99.90
7317;DHT22;3699;51.462;6.696;2022-11-15T00:33:01;11.50;99.90
7317;DHT22;3699;51.462;6.696;2022-11-15T00:35:31;11.70;99.90
7317;DHT22;3699;51.462;6.696;2022-11-15T00:37:58;11.70;99.90
7317;DHT22;3699;51.462;6.696;2022-11-15T00:40:25;11.50;99.90
7317;DHT22;3699;51.462;6.696;2022-11-15T00:42:52;11.60;99.90
7317;DHT22;3699;51.462;6.696;2022-11-15T00:45:18;11.60;99.90
7317;DHT22;3699;51.462;6.696;2022-11-15T00:47:45;11.60;99.90
7317;DHT22;3699;51.462;6.696;2022-11-15T00:52:41;11.70;99.90
7317;DHT22;3699;51.462;6.696;2022-11-15T00:55:09;11.70;99.90
7317;DHT22;3699;51.462;6.696;2022-11-15T00:57:39;11.90;99.90
7317;DHT22;3699;51.462;6.696;2022-11-15T01:00:06;12.00;99.90
7317;DHT22;3699;51.462;6.696;2022-11-15T01:02:34;11.80;99.90
7317;DHT22;3699;51.462;6.696;2022-11-15T01:05:01;11.80;99.90
7317;DHT22;3699;51.462;6.696;2022-11-15T01:07:28;11.80;99.90
7317;DHT22;3699;51.462;6.696;2022-11-15T01:09:56;11.70;99.90
7317;DHT22;3699;51.462;6.696;2022-11-15T01:12:22;11.80;99.90
7317;DHT22;3699;51.462;6.696;2022-11-15T01:14:49;11.80;99.90
7317;DHT22;3699;51.462;6.696;2022-11-15T01:17:16;11.90;99.90
7317;DHT22;3699;51.462;6.696;2022-11-15T01:19:43;11.90;99.90
7317;DHT22;3699;51.462;6.696;2022-11-15T01:22:09;11.90;99.90
7317;DHT22;3699;51.462;6.696;2022-11-15T01:24:36;11.90;99.90
7317;DHT22;3699;51.462;6.696;2022-11-15T01:27:04;12.10;99.90
7317;DHT22;3699;51.462;6.696;2022-11-15T01:29:31;11.50;99.90
7317;DHT22;3699;51.462;6.696;2022-11-15T01:31:58;12.00;99.90
7317;DHT22;3699;51.462;6.696;2022-11-15T01:34:24;11.90;99.90
7317;DHT22;3699;51.462;6.696;2022-11-15T01:36:51;12.00;99.90
7317;DHT22;3699;51.462;6.696;2022-11-15T01:39:18;12.30;99.90
7317;DHT22;3699;51.462;6.696;2022-11-15T01:41:45;12.10;99.90
7317;DHT22;3699;51.462;6.696;2022-11-15T01:44:42;12.10;99.90
7317;DHT22;3699;51.462;6.696;2022-11-15T01:47:13;12.00;99.90
7317;DHT22;3699;51.462;6.696;2022-11-15T01:49:49;11.80;99.90
7317;DHT22;3699;51.462;6.696;2022-11-15T01:52:19;12.30;99.90
7317;DHT22;3699;51.462;6.696;2022-11-15T01:54:48;12.20;99.90
7317;DHT22;3699;51.462;6.696;2022-11-15T01:57:16;12.40;99.90
7317;DHT22;3699;51.462;6.696;2022-11-15T01:59:45;12.30;99.90
7317;DHT22;3699;51.462;6.696;2022-11-15T02:02:13;12.10;99.90
7317;DHT22;3699;51.462;6.696;2022-11-15T02:04:41;12.30;99.90
7317;DHT22;3699;51.462;6.696;2022-11-15T02:07:10;12.30;99.90
7317;DHT22;3699;51.462;6.696;2022-11-15T02:09:38;12.30;99.90
7317;DHT22;3699;51.462;6.696;2022-11-15T02:12:06;12.30;99.90
7317;DHT22;3699;51.462;6.696;2022-11-15T02:14:34;12.40;99.90
7317;DHT22;3699;51.462;6.696;2022-11-15T02:17:11;12.50;99.90
7317;DHT22;3699;51.462;6.696;2022-11-15T02:20:09;12.30;99.90
7317;DHT22;3699;51.462;6.696;2022-11-15T02:22:49;12.40;99.90
7317;DHT22;3699;51.462;6.696;2022-11-15T02:25:37;12.30;99.90
7317;DHT22;3699;51.462;6.696;2022-11-15T02:28:21;12.30;99.90
7317;DHT22;3699;51.462;6.696;2022-11-15T02:31:00;12.30;99.90
7317;DHT22;3699;51.462;6.696;2022-11-15T02:33:35;12.70;99.90
7317;DHT22;3699;51.462;6.696;2022-11-15T02:36:09;12.50;99.90
7317;DHT22;3699;51.462;6.696;2022-11-15T02:38:41;12.50;99.90
7317;DHT22;3699;51.462;6.696;2022-11-15T02:41:15;12.50;99.90
7317;DHT22;3699;51.462;6.696;2022-11-15T02:43:46;12.50;99.90
7317;DHT22;3699;51.462;6.696;2022-11-15T02:46:27;12.30;99.90
7317;DHT22;3699;51.462;6.696;2022-11-15T02:49:09;12.70;99.90
7317;DHT22;3699;51.462;6.696;2022-11-15T02:51:36;12.60;99.90
7317;DHT22;3699;51.462;6.696;2022-11-15T02:54:03;12.60;99.90
7317;DHT22;3699;51.462;6.696;2022-11-15T02:56:30;12.80;99.90
7317;DHT22;3699;51.462;6.696;2022-11-15T02:59:08;12.60;99.90
7317;DHT22;3699;51.462;6.696;2022-11-15T03:01:51;13.20;99.90
7317;DHT22;3699;51.462;6.696;2022-11-15T03:04:26;12.50;99.90
7317;DHT22;3699;51.462;6.696;2022-11-15T03:07:00;12.90;99.90
7317;DHT22;3699;51.462;6.696;2022-11-15T03:09:33;12.70;99.90
7317;DHT22;3699;51.462;6.696;2022-11-15T03:12:10;12.70;99.90
7317;DHT22;3699;51.462;6.696;2022-11-15T03:14:42;12.70;99.90
7317;DHT22;3699;51.462;6.696;2022-11-15T03:17:18;12.80;99.90
7317;DHT22;3699;51.462;6.696;2022-11-15T03:19:47;12.90;99.90
7317;DHT22;3699;51.462;6.696;2022-11-15T03:22:17;12.80;99.90
7317;DHT22;3699;51.462;6.696;2022-11-15T03:24:47;12.80;99.90
7317;DHT22;3699;51.462;6.696;2022-11-15T03:27:19;13.00;99.90
7317;DHT22;3699;51.462;6.696;2022-11-15T03:29:51;12.90;99.90
7317;DHT22;3699;51.462;6.696;2022-11-15T03:32:24;13.10;99.90
7317;DHT22;3699;51.462;6.696;2022-11-15T03:34:56;12.80;99.90
7317;DHT22;3699;51.462;6.696;2022-11-15T03:37:29;12.90;99.90
7317;DHT22;3699;51.462;6.696;2022-11-15T03:39:59;12.90;99.90
7317;DHT22;3699;51.462;6.696;2022-11-15T03:42:31;12.90;99.90
7317;DHT22;3699;51.462;6.696;2022-11-15T03:45:02;12.90;99.90
7317;DHT22;3699;51.462;6.696;2022-11-15T03:47:36;13.40;99.90
7317;DHT22;3699;51.462;6.696;2022-11-15T03:50:08;12.80;99.90
7317;DHT22;3699;51.462;6.696;2022-11-15T03:52:37;13.20;99.90
7317;DHT22;3699;51.462;6.696;2022-11-15T03:55:05;12.90;99.90
7317;DHT22;3699;51.462;6.696;2022-11-15T03:57:32;13.00;99.90
7317;DHT22;3699;51.462;6.696;2022-11-15T03:59:59;13.10;99.90
7317;DHT22;3699;51.462;6.696;2022-11-15T04:02:26;13.20;99.90
7317;DHT22;3699;51.462;6.696;2022-11-15T04:04:55;13.10;99.90
7317;DHT22;3699;51.462;6.696;2022-11-15T04:07:21;13.10;99.90
7317;DHT22;3699;51.462;6.696;2022-11-15T04:09:48;13.00;99.90
7317;DHT22;3699;51.462;6.696;2022-11-15T04:12:31;13.20;99.90
7317;DHT22;3699;51.462;6.696;2022-11-15T04:15:03;13.00;99.90
7317;DHT22;3699;51.462;6.696;2022-11-15T04:17:35;12.50;99.90
7317;DHT22;3699;51.462;6.696;2022-11-15T04:20:06;12.90;99.90
7317;DHT22;3699;51.462;6.696;2022-11-15T04:22:52;13.10;99.90
7317;DHT22;3699;51.462;6.696;2022-11-15T04:25:38;13.00;99.90
7317;DHT22;3699;51.462;6.696;2022-11-15T04:28:05;13.00;99.90
7317;DHT22;3699;51.462;6.696;2022-11-15T04:30:32;13.30;99.90
7317;DHT22;3699;51.462;6.696;2022-11-15T04:32:59;13.10;99.90
7317;DHT22;3699;51.462;6.696;2022-11-15T04:35:27;13.30;99.90
7317;DHT22;3699;51.462;6.696;2022-11-15T04:37:54;13.10;99.90
7317;DHT22;3699;51.462;6.696;2022-11-15T04:40:20;13.20;99.90
7317;DHT22;3699;51.462;6.696;2022-11-15T04:42:54;13.20;99.90
7317;DHT22;3699;51.462;6.696;2022-11-15T04:45:21;13.30;99.90
7317;DHT22;3699;51.462;6.696;2022-11-15T04:47:48;13.00;99.90
7317;DHT22;3699;51.462;6.696;2022-11-15T04:50:15;13.20;99.90
7317;DHT22;3699;51.462;6.696;2022-11-15T04:52:50;13.10;99.90
7317;DHT22;3699;51.462;6.696;2022-11-15T04:55:17;13.30;99.90
7317;DHT22;3699;51.462;6.696;2022-11-15T04:57:44;13.00;99.90
7317;DHT22;3699;51.462;6.696;2022-11-15T05:00:15;13.10;99.90
7317;DHT22;3699;51.462;6.696;2022-11-15T05:02:42;13.10;99.90
7317;DHT22;3699;51.462;6.696;2022-11-15T05:05:26;13.30;99.90
7317;DHT22;3699;51.462;6.696;2022-11-15T05:07:54;13.20;99.90
7317;DHT22;3699;51.462;6.696;2022-11-15T05:12:48;13.10;99.90
7317;DHT22;3699;51.462;6.696;2022-11-15T05:15:15;13.30;99.90
7317;DHT22;3699;51.462;6.696;2022-11-15T05:17:42;13.30;99.90
7317;DHT22;3699;51.462;6.696;2022-11-15T05:20:10;13.30;99.90
7317;DHT22;3699;51.462;6.696;2022-11-15T05:22:37;13.20;99.90
7317;DHT22;3699;51.462;6.696;2022-11-15T05:25:06;13.20;99.90
7317;DHT22;3699;51.462;6.696;2022-11-15T05:27:34;13.30;99.90
7317;DHT22;3699;51.462;6.696;2022-11-15T05:30:01;13.20;99.90
7317;DHT22;3699;51.462;6.696;2022-11-15T05:32:28;13.40;99.90
7317;DHT22;3699;51.462;6.696;2022-11-15T05:34:55;12.70;99.90
7317;DHT22;3699;51.462;6.696;2022-11-15T05:37:22;13.20;99.90
7317;DHT22;3699;51.462;6.696;2022-11-15T05:39:48;13.20;99.90
7317;DHT22;3699;51.462;6.696;2022-11-15T05:42:17;13.30;99.90
7317;DHT22;3699;51.462;6.696;2022-11-15T05:44:47;13.10;99.90
7317;DHT22;3699;51.462;6.696;2022-11-15T05:47:18;13.10;99.90
7317;DHT22;3699;51.462;6.696;2022-11-15T05:49:47;13.10;99.90
7317;DHT22;3699;51.462;6.696;2022-11-15T05:52:16;12.60;99.90
7317;DHT22;3699;51.462;6.696;2022-11-15T05:54:44;13.30;99.90
7317;DHT22;3699;51.462;6.696;2022-11-15T05:57:10;13.00;99.90
7317;DHT22;3699;51.462;6.696;2022-11-15T05:59:38;13.40;99.90
7317;DHT22;3699;51.462;6.696;2022-11-15T06:07:00;13.20;99.90
7317;DHT22;3699;51.462;6.696;2022-11-15T06:09:27;12.80;99.90
7317;DHT22;3699;51.462;6.696;2022-11-15T06:11:54;13.20;99.90
7317;DHT22;3699;51.462;6.696;2022-11-15T06:14:20;13.50;99.90
7317;DHT22;3699;51.462;6.696;2022-11-15T06:16:48;13.40;99.90
7317;DHT22;3699;51.462;6.696;2022-11-15T06:19:15;13.30;99.90
7317;DHT22;3699;51.462;6.696;2022-11-15T06:21:42;13.30;99.90
7317;DHT22;3699;51.462;6.696;2022-11-15T06:24:08;13.20;99.90
7317;DHT22;3699;51.462;6.696;2022-11-15T06:26:35;13.30;99.90
7317;DHT22;3699;51.462;6.696;2022-11-15T06:29:02;13.40;99.90
7317;DHT22;3699;51.462;6.696;2022-11-15T06:31:29;13.20;99.90
7317;DHT22;3699;51.462;6.696;2022-11-15T06:33:57;13.20;99.90
7317;DHT22;3699;51.462;6.696;2022-11-15T06:36:24;13.40;99.90
7317;DHT22;3699;51.462;6.696;2022-11-15T06:38:51;13.20;99.90
7317;DHT22;3699;51.462;6.696;2022-11-15T06:41:17;13.20;99.90
7317;DHT22;3699;51.462;6.696;2022-11-15T06:43:46;13.20;99.90
7317;DHT22;3699;51.462;6.696;2022-11-15T06:46:13;13.40;99.90
7317;DHT22;3699;51.462;6.696;2022-11-15T06:48:39;13.20;99.90
7317;DHT22;3699;51.462;6.696;2022-11-15T06:51:07;13.20;99.90
7317;DHT22;3699;51.462;6.696;2022-11-15T06:53:35;13.40;99.90
7317;DHT22;3699;51.462;6.696;2022-11-15T06:56:03;13.30;99.90
7317;DHT22;3699;51.462;6.696;2022-11-15T06:58:30;12.90;99.90
7317;DHT22;3699;51.462;6.696;2022-11-15T07:01:00;13.40;99.90
7317;DHT22;3699;51.462;6.696;2022-11-15T07:03:27;13.40;99.90
7317;DHT22;3699;51.462;6.696;2022-11-15T07:05:54;12.70;99.90
7317;DHT22;3699;51.462;6.696;2022-11-15T07:08:26;13.30;99.90
7317;DHT22;3699;51.462;6.696;2022-11-15T07:10:53;12.50;99.90
7317;DHT22;3699;51.462;6.696;2022-11-15T07:13:24;13.20;99.90
7317;DHT22;3699;51.462;6.696;2022-11-15T07:15:50;13.20;99.90
7317;DHT22;3699;51.462;6.696;2022-11-15T07:18:17;13.30;99.90
7317;DHT22;3699;51.462;6.696;2022-11-15T07:20:44;13.30;99.90
7317;DHT22;3699;51.462;6.696;2022-11-15T07:23:11;12.80;99.90
7317;DHT22;3699;51.462;6.696;2022-11-15T07:25:39;13.30;99.90
7317;DHT22;3699;51.462;6.696;2022-11-15T07:28:05;13.20;99.90
7317;DHT22;3699;51.462;6.696;2022-11-15T07:30:32;13.20;99.90
7317;DHT22;3699;51.462;6.696;2022-11-15T07:33:00;13.50;99.90
7317;DHT22;3699;51.462;6.696;2022-11-15T07:35:28;13.30;99.90
7317;DHT22;3699;51.462;6.696;2022-11-15T07:37:56;13.60;99.90
7317;DHT22;3699;51.462;6.696;2022-11-15T07:40:24;13.50;99.90
7317;DHT22;3699;51.462;6.696;2022-11-15T07:42:52;13.40;99.90
7317;DHT22;3699;51.462;6.696;2022-11-15T07:47:46;13.40;99.90
7317;DHT22;3699;51.462;6.696;2022-11-15T07:50:13;13.30;99.90
7317;DHT22;3699;51.462;6.696;2022-11-15T07:52:39;13.30;99.90
7317;DHT22;3699;51.462;6.696;2022-11-15T07:55:07;13.30;99.90
7317;DHT22;3699;51.462;6.696;2022-11-15T07:57:34;13.10;99.90
7317;DHT22;3699;51.462;6.696;2022-11-15T08:00:03;13.30;99.90
7317;DHT22;3699;51.462;6.696;2022-11-15T08:02:30;13.20;99.90
7317;DHT22;3699;51.462;6.696;2022-11-15T08:04:57;13.10;99.90
7317;DHT22;3699;51.462;6.696;2022-11-15T08:07:24;12.80;99.90
7317;DHT22;3699;51.462;6.696;2022-11-15T08:09:51;13.10;99.90
7317;DHT22;3699;51.462;6.696;2022-11-15T08:12:18;12.40;99.90
7317;DHT22;3699;51.462;6.696;2022-11-15T08:14:45;12.90;99.90
7317;DHT22;3699;51.462;6.696;2022-11-15T08:17:13;12.70;99.90
7317;DHT22;3699;51.462;6.696;2022-11-15T08:19:40;12.50;99.90
7317;DHT22;3699;51.462;6.696;2022-11-15T08:22:07;12.70;99.90
7317;DHT22;3699;51.462;6.696;2022-11-15T08:24:34;12.60;99.90
7317;DHT22;3699;51.462;6.696;2022-11-15T08:27:01;12.40;99.90
7317;DHT22;3699;51.462;6.696;2022-11-15T08:29:27;12.60;99.90
7317;DHT22;3699;51.462;6.696;2022-11-15T08:31:54;12.80;99.90
7317;DHT22;3699;51.462;6.696;2022-11-15T08:34:23;12.60;99.90
7317;DHT22;3699;51.462;6.696;2022-11-15T08:36:49;12.90;99.90
7317;DHT22;3699;51.462;6.696;2022-11-15T08:39:23;12.80;99.90
7317;DHT22;3699;51.462;6.696;2022-11-15T08:41:56;12.60;99.90
7317;DHT22;3699;51.462;6.696;2022-11-15T08:44:23;12.60;99.90
7317;DHT22;3699;51.462;6.696;2022-11-15T08:49:18;12.80;99.90
7317;DHT22;3699;51.462;6.696;2022-11-15T08:51:46;12.80;99.90
7317;DHT22;3699;51.462;6.696;2022-11-15T08:54:13;12.90;99.90
7317;DHT22;3699;51.462;6.696;2022-11-15T08:56:40;13.00;99.90
7317;DHT22;3699;51.462;6.696;2022-11-15T08:59:07;13.10;99.90
7317;DHT22;3699;51.462;6.696;2022-11-15T09:01:35;13.70;99.90
7317;DHT22;3699;51.462;6.696;2022-11-15T09:04:01;12.70;99.90
7317;DHT22;3699;51.462;6.696;2022-11-15T09:06:29;13.40;99.90
7317;DHT22;3699;51.462;6.696;2022-11-15T09:08:57;14.00;99.90
7317;DHT22;3699;51.462;6.696;2022-11-15T09:11:24;13.70;99.90
7317;DHT22;3699;51.462;6.696;2022-11-15T09:13:52;14.00;99.90
7317;DHT22;3699;51.462;6.696;2022-11-15T09:16:18;13.70;99.90
7317;DHT22;3699;51.462;6.696;2022-11-15T09:18:45;13.90;99.90
7317;DHT22;3699;51.462;6.696;2022-11-15T09:21:12;13.80;99.90
7317;DHT22;3699;51.462;6.696;2022-11-15T09:23:39;13.80;99.90
7317;DHT22;3699;51.462;6.696;2022-11-15T09:26:07;13.50;99.90
7317;DHT22;3699;51.462;6.696;2022-11-15T09:31:03;13.80;99.90
7317;DHT22;3699;51.462;6.696;2022-11-15T09:33:30;13.60;99.90
7317;DHT22;3699;51.462;6.696;2022-11-15T09:36:00;13.70;99.90
7317;DHT22;3699;51.462;6.696;2022-11-15T09:38:27;14.10;99.90
7317;DHT22;3699;51.462;6.696;2022-11-15T09:41:12;13.90;99.90
7317;DHT22;3699;51.462;6.696;2022-11-15T09:43:50;14.20;99.90
7317;DHT22;3699;51.462;6.696;2022-11-15T09:46:28;14.20;99.90
7317;DHT22;3699;51.462;6.696;2022-11-15T09:48:59;14.30;99.90
7317;DHT22;3699;51.462;6.696;2022-11-15T09:51:30;14.40;99.90
7317;DHT22;3699;51.462;6.696;2022-11-15T09:54:05;14.50;99.90
7317;DHT22;3699;51.462;6.696;2022-11-15T09:56:38;14.50;99.90
7317;DHT22;3699;51.462;6.696;2022-11-15T09:59:17;14.50;99.90
7317;DHT22;3699;51.462;6.696;2022-11-15T10:01:53;14.50;99.90
7317;DHT22;3699;51.462;6.696;2022-11-15T10:04:23;14.40;99.90
7317;DHT22;3699;51.462;6.696;2022-11-15T10:06:55;14.60;99.90
7317;DHT22;3699;51.462;6.696;2022-11-15T10:09:27;14.40;99.90
7317;DHT22;3699;51.462;6.696;2022-11-15T10:11:56;14.30;99.90
7317;DHT22;3699;51.462;6.696;2022-11-15T10:14:25;14.80;99.90
7317;DHT22;3699;51.462;6.696;2022-11-15T10:17:13;14.20;99.90
7317;DHT22;3699;51.462;6.696;2022-11-15T10:19:52;14.30;99.90
7317;DHT22;3699;51.462;6.696;2022-11-15T10:22:27;14.30;99.90
7317;DHT22;3699;51.462;6.696;2022-11-15T10:25:09;14.20;99.90
7317;DHT22;3699;51.462;6.696;2022-11-15T10:27:39;14.30;99.90
7317;DHT22;3699;51.462;6.696;2022-11-15T10:30:12;14.30;99.90
7317;DHT22;3699;51.462;6.696;2022-11-15T10:32:40;14.40;99.90
7317;DHT22;3699;51.462;6.696;2022-11-15T10:35:21;14.30;99.90
7317;DHT22;3699;51.462;6.696;2022-11-15T10:37:48;14.40;99.90
7317;DHT22;3699;51.462;6.696;2022-11-15T10:40:18;15.10;99.90
7317;DHT22;3699;51.462;6.696;2022-11-15T10:42:47;14.70;99.90
7317;DHT22;3699;51.462;6.696;2022-11-15T10:45:25;14.30;99.90
7317;DHT22;3699;51.462;6.696;2022-11-15T10:47:52;14.30;99.90
7317;DHT22;3699;51.462;6.696;2022-11-15T10:50:29;14.50;99.90
7317;DHT22;3699;51.462;6.696;2022-11-15T10:52:57;14.50;99.90
7317;DHT22;3699;51.462;6.696;2022-11-15T10:55:26;14.40;99.90
7317;DHT22;3699;51.462;6.696;2022-11-15T10:58:00;14.40;99.90
7317;DHT22;3699;51.462;6.696;2022-11-15T11:00:32;15.10;99.90
7317;DHT22;3699;51.462;6.696;2022-11-15T11:03:00;14.50;99.90
7317;DHT22;3699;51.462;6.696;2022-11-15T11:05:30;14.60;99.90
7317;DHT22;3699;51.462;6.696;2022-11-15T11:07:59;14.40;99.90
7317;DHT22;3699;51.462;6.696;2022-11-15T11:10:27;14.60;99.90
7317;DHT22;3699;51.462;6.696;2022-11-15T11:12:55;14.40;99.90
7317;DHT22;3699;51.462;6.696;2022-11-15T11:15:24;14.40;99.90
7317;DHT22;3699;51.462;6.696;2022-11-15T11:18:00;14.40;99.90
7317;DHT22;3699;51.462;6.696;2022-11-15T11:20:32;14.50;99.90
7317;DHT22;3699;51.462;6.696;2022-11-15T11:25:53;14.50;99.90
7317;DHT22;3699;51.462;6.696;2022-11-15T11:28:33;14.60;99.90
7317;DHT22;3699;51.462;6.696;2022-11-15T11:31:13;14.50;99.90
7317;DHT22;3699;51.462;6.696;2022-11-15T11:33:47;14.40;99.90
7317;DHT22;3699;51.462;6.696;2022-11-15T11:36:21;14.70;99.90
7317;DHT22;3699;51.462;6.696;2022-11-15T11:39:18;14.40;99.90
7317;DHT22;3699;51.462;6.696;2022-11-15T11:41:55;14.40;99.90
7317;DHT22;3699;51.462;6.696;2022-11-15T11:44:32;14.20;99.90
7317;DHT22;3699;51.462;6.696;2022-11-15T11:47:01;14.30;99.90
7317;DHT22;3699;51.462;6.696;2022-11-15T11:49:37;14.30;99.90
7317;DHT22;3699;51.462;6.696;2022-11-15T11:52:10;14.30;99.90
7317;DHT22;3699;51.462;6.696;2022-11-15T11:54:47;14.30;99.90
7317;DHT22;3699;51.462;6.696;2022-11-15T11:57:22;14.30;99.90
7317;DHT22;3699;51.462;6.696;2022-11-15T11:59:55;14.30;99.90
7317;DHT22;3699;51.462;6.696;2022-11-15T12:02:28;14.30;99.90
7317;DHT22;3699;51.462;6.696;2022-11-15T12:05:01;14.40;99.90
7317;DHT22;3699;51.462;6.696;2022-11-15T12:07:32;14.30;99.90
7317;DHT22;3699;51.462;6.696;2022-11-15T12:10:04;14.40;99.90
7317;DHT22;3699;51.462;6.696;2022-11-15T12:12:38;14.40;99.90
7317;DHT22;3699;51.462;6.696;2022-11-15T12:15:15;14.60;99.90
7317;DHT22;3699;51.462;6.696;2022-11-15T12:17:43;14.30;99.90
7317;DHT22;3699;51.462;6.696;2022-11-15T12:20:16;14.60;99.90
7317;DHT22;3699;51.462;6.696;2022-11-15T12:22:47;14.40;99.90
7317;DHT22;3699;51.462;6.696;2022-11-15T12:25:18;14.40;99.90
7317;DHT22;3699;51.462;6.696;2022-11-15T12:27:50;14.40;99.90
7317;DHT22;3699;51.462;6.696;2022-11-15T12:30:21;14.30;99.90
7317;DHT22;3699;51.462;6.696;2022-11-15T12:32:51;14.30;99.90
7317;DHT22;3699;51.462;6.696;2022-11-15T12:35:24;14.80;99.90
7317;DHT22;3699;51.462;6.696;2022-11-15T12:37:52;14.30;99.90
7317;DHT22;3699;51.462;6.696;2022-11-15T12:43:03;14.40;99.90
7317;DHT22;3699;51.462;6.696;2022-11-15T12:45:33;14.50;99.90
7317;DHT22;3699;51.462;6.696;2022-11-15T12:51:04;14.40;99.90
7317;DHT22;3699;51.462;6.696;2022-11-15T12:53:33;14.50;99.90
7317;DHT22;3699;51.462;6.696;2022-11-15T12:56:21;14.30;99.90
7317;DHT22;3699;51.462;6.696;2022-11-15T12:58:53;14.40;99.90
7317;DHT22;3699;51.462;6.696;2022-11-15T13:01:57;14.50;99.90
7317;DHT22;3699;51.462;6.696;2022-11-15T13:04:26;14.60;99.90
7317;DHT22;3699;51.462;6.696;2022-11-15T13:06:55;14.50;99.90
7317;DHT22;3699;51.462;6.696;2022-11-15T13:09:50;14.70;99.90
7317;DHT22;3699;51.462;6.696;2022-11-15T13:12:50;14.80;99.90
7317;DHT22;3699;51.462;6.696;2022-11-15T13:15:45;14.90;99.90
7317;DHT22;3699;51.462;6.696;2022-11-15T13:18:32;14.70;99.90
7317;DHT22;3699;51.462;6.696;2022-11-15T13:21:00;14.70;99.90
7317;DHT22;3699;51.462;6.696;2022-11-15T13:23:52;14.70;99.90
7317;DHT22;3699;51.462;6.696;2022-11-15T13:26:19;14.70;99.90
7317;DHT22;3699;51.462;6.696;2022-11-15T13:28:47;14.70;99.90
7317;DHT22;3699;51.462;6.696;2022-11-15T13:31:28;14.60;99.90
7317;DHT22;3699;51.462;6.696;2022-11-15T13:33:59;14.70;99.90
7317;DHT22;3699;51.462;6.696;2022-11-15T13:36:28;14.80;99.90
7317;DHT22;3699;51.462;6.696;2022-11-15T13:38:58;14.70;99.90
7317;DHT22;3699;51.462;6.696;2022-11-15T13:41:26;15.00;99.90
7317;DHT22;3699;51.462;6.696;2022-11-15T13:43:54;14.80;99.90
7317;DHT22;3699;51.462;6.696;2022-11-15T13:46:22;15.00;99.90
7317;DHT22;3699;51.462;6.696;2022-11-15T13:48:55;15.10;99.90
7317;DHT22;3699;51.462;6.696;2022-11-15T13:51:29;14.80;99.90
7317;DHT22;3699;51.462;6.696;2022-11-15T13:54:00;14.90;99.90
7317;DHT22;3699;51.462;6.696;2022-11-15T13:56:28;14.90;99.90
7317;DHT22;3699;51.462;6.696;2022-11-15T13:58:56;15.00;99.90
7317;DHT22;3699;51.462;6.696;2022-11-15T14:01:23;15.10;99.90
7317;DHT22;3699;51.462;6.696;2022-11-15T14:03:55;15.00;99.90
7317;DHT22;3699;51.462;6.696;2022-11-15T14:06:25;15.20;99.90
7317;DHT22;3699;51.462;6.696;2022-11-15T14:09:15;15.10;99.90
7317;DHT22;3699;51.462;6.696;2022-11-15T14:11:52;15.00;99.90
7317;DHT22;3699;51.462;6.696;2022-11-15T14:14:20;14.80;99.90
7317;DHT22;3699;51.462;6.696;2022-11-15T14:16:49;14.90;99.90
7317;DHT22;3699;51.462;6.696;2022-11-15T14:19:37;15.00;99.90
7317;DHT22;3699;51.462;6.696;2022-11-15T14:22:15;14.90;99.90
7317;DHT22;3699;51.462;6.696;2022-11-15T14:24:43;15.00;99.90
7317;DHT22;3699;51.462;6.696;2022-11-15T14:27:23;14.70;99.90
7317;DHT22;3699;51.462;6.696;2022-11-15T14:29:50;14.20;99.90
7317;DHT22;3699;51.462;6.696;2022-11-15T14:32:18;15.20;99.90
7317;DHT22;3699;51.462;6.696;2022-11-15T14:34:47;15.10;99.90
7317;DHT22;3699;51.462;6.696;2022-11-15T14:37:21;14.90;99.90
7317;DHT22;3699;51.462;6.696;2022-11-15T14:39:49;14.90;99.90
7317;DHT22;3699;51.462;6.696;2022-11-15T14:42:16;14.70;99.90
7317;DHT22;3699;51.462;6.696;2022-11-15T14:44:43;14.80;99.90
7317;DHT22;3699;51.462;6.696;2022-11-15T14:47:09;14.70;99.90
7317;DHT22;3699;51.462;6.696;2022-11-15T14:49:36;14.90;99.90
7317;DHT22;3699;51.462;6.696;2022-11-15T14:52:07;14.80;99.90
7317;DHT22;3699;51.462;6.696;2022-11-15T14:54:39;14.80;99.90
7317;DHT22;3699;51.462;6.696;2022-11-15T14:57:06;14.70;99.90
7317;DHT22;3699;51.462;6.696;2022-11-15T14:59:32;14.70;99.90
7317;DHT22;3699;51.462;6.696;2022-11-15T15:01:59;14.60;99.90
7317;DHT22;3699;51.462;6.696;2022-11-15T15:04:26;14.90;99.90
7317;DHT22;3699;51.462;6.696;2022-11-15T15:06:53;14.70;99.90
7317;DHT22;3699;51.462;6.696;2022-11-15T15:09:19;14.70;99.90
7317;DHT22;3699;51.462;6.696;2022-11-15T15:11:47;14.50;99.90
7317;DHT22;3699;51.462;6.696;2022-11-15T15:14:14;14.50;99.90
7317;DHT22;3699;51.462;6.696;2022-11-15T15:16:42;14.40;99.90
7317;DHT22;3699;51.462;6.696;2022-11-15T15:19:09;14.70;99.90
7317;DHT22;3699;51.462;6.696;2022-11-15T15:21:35;14.50;99.90
7317;DHT22;3699;51.462;6.696;2022-11-15T15:24:02;14.90;99.90
7317;DHT22;3699;51.462;6.696;2022-11-15T15:26:29;14.40;99.90
7317;DHT22;3699;51.462;6.696;2022-11-15T15:29:00;14.50;99.90
7317;DHT22;3699;51.462;6.696;2022-11-15T15:31:27;14.60;99.90
7317;DHT22;3699;51.462;6.696;2022-11-15T15:33:53;14.30;99.90
7317;DHT22;3699;51.462;6.696;2022-11-15T15:36:20;14.40;99.90
7317;DHT22;3699;51.462;6.696;2022-11-15T15:38:47;14.30;99.90
7317;DHT22;3699;51.462;6.696;2022-11-15T15:41:15;14.70;99.90
7317;DHT22;3699;51.462;6.696;2022-11-15T15:43:42;14.30;99.90
7317;DHT22;3699;51.462;6.696;2022-11-15T15:46:12;14.10;99.90
7317;DHT22;3699;51.462;6.696;2022-11-15T15:48:38;14.30;99.90
7317;DHT22;3699;51.462;6.696;2022-11-15T15:51:06;14.30;99.90
7317;DHT22;3699;51.462;6.696;2022-11-15T15:53:33;14.10;99.90
7317;DHT22;3699;51.462;6.696;2022-11-15T15:56:00;14.20;99.90
7317;DHT22;3699;51.462;6.696;2022-11-15T15:58:27;14.20;99.90
7317;DHT22;3699;51.462;6.696;2022-11-15T16:00:53;14.00;99.90
7317;DHT22;3699;51.462;6.696;2022-11-15T16:03:21;14.10;99.90
7317;DHT22;3699;51.462;6.696;2022-11-15T16:05:49;14.10;99.90
7317;DHT22;3699;51.462;6.696;2022-11-15T16:08:18;14.00;99.90
7317;DHT22;3699;51.462;6.696;2022-11-15T16:10:45;14.30;99.90
7317;DHT22;3699;51.462;6.696;2022-11-15T16:13:12;14.10;99.90
7317;DHT22;3699;51.462;6.696;2022-11-15T16:15:39;14.10;99.90
7317;DHT22;3699;51.462;6.696;2022-11-15T16:18:14;14.30;99.90
7317;DHT22;3699;51.462;6.696;2022-11-15T16:20:44;14.40;99.90
7317;DHT22;3699;51.462;6.696;2022-11-15T16:23:12;14.10;99.90
7317;DHT22;3699;51.462;6.696;2022-11-15T16:25:46;14.00;99.90
7317;DHT22;3699;51.462;6.696;2022-11-15T16:28:19;14.40;99.90
7317;DHT22;3699;51.462;6.696;2022-11-15T16:30:46;14.10;99.90
7317;DHT22;3699;51.462;6.696;2022-11-15T16:33:13;14.30;99.90
7317;DHT22;3699;51.462;6.696;2022-11-15T16:35:39;14.30;99.90
7317;DHT22;3699;51.462;6.696;2022-11-15T16:38:14;14.30;99.90
7317;DHT22;3699;51.462;6.696;2022-11-15T16:40:41;14.40;99.90
7317;DHT22;3699;51.462;6.696;2022-11-15T16:43:07;14.20;99.90
7317;DHT22;3699;51.462;6.696;2022-11-15T16:45:34;14.30;99.90
7317;DHT22;3699;51.462;6.696;2022-11-15T16:48:01;14.30;99.90